• Join FlightAware (Why Join?)
  • Login
  • US Flag 
11:04AM EDT


 

Airport Tracker/Info


-or-


 

Live Flight TrackerFlight Track Log ✈ TRS473 ✈ 08-Jun-2013 ✈ KTPA - KRSW

Flight Track Log - Related Links

Times and Time Zones

All times are in EDT time to prevent confusion due to time zone crossing. See the TRS473 flight status page for this flight to view local times or setup timezone preferences in your user account.

Time Position Orientation Groundspeed Altitude Reporting Facility
EDT Latitude Longitude Course Direction KTS MPH feet Rate Location/Type
02:43PM 27.8833 -82.6167 219° Southwest 248 285 3,600  Level Tampa TRACON
02:44PM 27.8333 -82.6667 221° Southwest 266 306 6,000 2,400 Climbing Tampa TRACON
02:45PM 27.7667 -82.6333 156° South 288 331 8,200 1,080 Climbing Tampa TRACON
02:47PM 27.6508 -82.5717 155° Southeast 310 357 9,000 960 Climbing Miami Center
02:48PM 27.5736 -82.5747 182° South 293 337 10,800 960 Climbing Miami Center
02:49PM 27.4772 -82.5839 185° South 313 360 11,000 60 Climbing Miami Center
02:50PM 27.3808 -82.5933 185° South 338 389 11,000 -60 Level Miami Center
02:51PM 27.2864 -82.6047 186° South 349 402 10,900  Descending Miami Center
02:52PM 27.1944 -82.6119 184° South 349 402 11,000  Climbing Miami Center
02:53PM 27.1067 -82.5608 153° Southeast 341 392 11,000  Level Miami Center
02:54PM 27.0300 -82.4919 141° Southeast 332 382 11,000  Level Miami Center
02:55PM 26.9533 -82.4231 141° Southeast 344 396 11,000 -60 Level Miami Center
02:56PM 26.8767 -82.3589 143° Southeast 350 403 10,900 -600 Descending Miami Center
02:57PM 26.8119 -82.3000 141° Southeast 336 387 9,900 -1,020 Descending Miami Center
02:58PM 26.7472 -82.2458 143° Southeast 307 353 8,900 -960 Descending Miami Center
02:59PM 26.6822 -82.1964 146° Southeast 289 333 8,000 -1,020 Descending Miami Center
03:00PM 26.6175 -82.1447 144° Southeast 289 333 6,900 -1,200 Descending Miami Center
03:01PM 26.5567 -82.0956 144° Southeast 278 320 5,600 -1,440 Descending Miami Center
03:02PM 26.4936 -82.0486 146° Southeast 273 314 4,100 -1,500 Descending Miami Center
03:04PM 26.4234 -81.9369 110° East  Level FlightAware Approximate
03:11PM 26.5333 -81.7500 50° Northeast  Level FlightAware Approximate
03:12PM 26.5362 -81.7552 50° Northeast  Level Estimated
03:13PM 26.5333 -81.7500 50° Northeast  Level FlightAware Approximate
03:14PM 26.5362 -81.7552 50° Northeast  Level Estimated
03:15PM 26.5333 -81.7500 50° Northeast  Level FlightAware Approximate
03:16PM 26.5362 -81.7552 50° Northeast  Level Estimated